Stations météo

réclame
Mon MeteoGroup
Formigueres, France (7737): Température de l'air & dewpoint: 11.01.2018 07:00:00 - 17.01.2018 07:00:00 (CET)Formigueres, France (7737): Vitesse du vent & gusts: 11.01.2018 07:00:00 - 17.01.2018 07:00:00 (CET)Formigueres, France (7737): Direction du vent: 11.01.2018 07:00:00 - 17.01.2018 07:00:00 (CET)Formigueres, France (7737): Quantités de précipitations: 11.01.2018 07:00:00 - 17.01.2018 07:00:00 (CET)
Date & Time tt [°C] td [°C] ff [km/h] ff [knt] fx [km/h] fx [knt] dd rr [mm]
17.01.2018 07:00:00 2,3 -1,0 15 8 67 36 WNW -
17.01.2018 06:00:00 3,7 -1,1 21 11 81 44 NW 0,0
17.01.2018 05:00:00 4,3 0,3 13 7 74 40 W 0,0
17.01.2018 04:00:00 5,8 -0,9 34 18 130 70 W 0,0
17.01.2018 03:00:00 6,4 -0,4 16 9 93 50 NNW 0,0
17.01.2018 02:00:00 7,4 -0,8 34 18 98 53 W 0,0
17.01.2018 01:00:00 7,5 -0,2 48 26 119 64 W -
17.01.2018 00:00:00 7,0 0,2 16 9 59 32 SSW 0,0
16.01.2018 23:00:00 6,8 -0,4 18 10 93 50 ESE 0,0
16.01.2018 22:00:00 7,5 -1,0 28 15 100 54 W 0,0
16.01.2018 21:00:00 8,0 0,0 22 12 80 43 W 0,2
16.01.2018 20:00:00 7,6 0,3 13 7 41 22 W 0,0
16.01.2018 19:00:00 8,3 0,0 15 8 63 34 W -
16.01.2018 18:00:00 7,0 0,6 16 9 57 31 SE 0,0
16.01.2018 17:00:00 8,0 0,9 16 9 54 29 E 0,0
16.01.2018 16:00:00 9,0 1,6 11 6 63 34 ESE 0,6
16.01.2018 15:00:00 7,8 1,8 18 10 61 33 N 1,0
16.01.2018 14:00:00 7,1 2,0 18 10 52 28 NNE 1,0
16.01.2018 13:00:00 7,8 1,6 13 7 50 27 N -
16.01.2018 12:00:00 7,2 1,3 26 14 57 31 NNE 0,4
16.01.2018 11:00:00 6,8 0,9 16 9 50 27 NNE 0,0
16.01.2018 10:00:00 7,2 -0,1 24 13 52 28 NNE 0,0
16.01.2018 09:00:00 5,3 -0,5 16 9 44 24 N 0,0
16.01.2018 08:00:00 3,9 -0,5 16 9 39 21 N 0,0
16.01.2018 07:00:00 3,3 -0,9 8 4 34 18 N -
16.01.2018 06:00:00 3,2 -0,8 11 6 63 34 NNW 0,0
16.01.2018 05:00:00 3,8 -0,8 11 6 48 26 N 0,2
16.01.2018 04:00:00 4,5 -0,9 13 7 59 32 NNE 0,0
16.01.2018 03:00:00 4,1 0,1 18 10 41 22 NNE 0,0
16.01.2018 02:00:00 4,1 0,6 9 5 29 16 N 0,0
16.01.2018 01:00:00 1,8 -0,9 4 2 16 9 ENE -
16.01.2018 00:00:00 0,8 -1,6 5 3 18 10 WSW 0,0
15.01.2018 23:00:00 0,5 -3,1 9 5 16 9 SW 0,0
15.01.2018 22:00:00 -1,2 -3,9 2 1 13 7 NNW 0,0
15.01.2018 21:00:00 -1,2 -4,0 2 1 15 8 N 0,0
15.01.2018 20:00:00 -0,6 -3,1 8 4 15 8 W 0,0
15.01.2018 19:00:00 -0,8 -3,2 8 4 13 7 W -
15.01.2018 18:00:00 0,2 -3,4 5 3 22 12 W 0,0
15.01.2018 17:00:00 1,3 -4,8 9 5 18 10 SSW 0,0
15.01.2018 16:00:00 2,6 -4,8 13 7 29 16 S 0,0
15.01.2018 15:00:00 3,5 -5,4 18 10 35 19 S 0,0
15.01.2018 14:00:00 3,1 -4,8 18 10 41 22 S 0,0
15.01.2018 13:00:00 3,8 -4,4 2 1 9 5 E -
15.01.2018 12:00:00 0,0 -4,3 4 2 11 6 SE 0,0
15.01.2018 11:00:00 -2,0 -5,2 4 2 9 5 NE 0,0
15.01.2018 10:00:00 -3,9 -6,8 0 0 9 5 N 0,0
15.01.2018 09:00:00 -7,0 -8,4 8 4 16 9 WSW 0,0
15.01.2018 08:00:00 -6,6 -7,7 8 4 15 8 W 0,0
15.01.2018 07:00:00 -6,1 -7,6 8 4 15 8 WSW -
15.01.2018 06:00:00 -4,9 -6,4 8 4 15 8 W 0,0
15.01.2018 05:00:00 -3,8 -4,9 5 3 8 4 WSW 0,0
15.01.2018 04:00:00 -2,0 -2,8 4 2 26 14 W 0,0
15.01.2018 03:00:00 -2,0 -2,6 11 6 24 13 N 0,0
15.01.2018 02:00:00 -2,5 -3,1 5 3 13 7 NE 0,0
15.01.2018 01:00:00 -2,4 -3,8 8 4 21 11 SSW -
15.01.2018 00:00:00 -1,4 -2,7 13 7 24 13 NNW 0,0
14.01.2018 23:00:00 -1,3 -2,7 11 6 22 12 NNW 0,0
14.01.2018 22:00:00 -1,1 -2,7 13 7 21 11 NNW 0,0
14.01.2018 21:00:00 -1,7 -2,1 11 6 29 16 N 0,0
14.01.2018 20:00:00 -1,6 -2,0 15 8 22 12 N 0,0
14.01.2018 19:00:00 -2,7 -3,7 4 2 16 9 S -
14.01.2018 18:00:00 -1,3 -2,1 9 5 22 12 N 0,0
14.01.2018 17:00:00 -0,9 -2,3 13 7 24 13 N 0,0
14.01.2018 16:00:00 -0,6 -1,9 11 6 28 15 NNE 0,0
14.01.2018 15:00:00 -0,9 -1,9 16 9 29 16 N 0,0
14.01.2018 14:00:00 -0,1 -1,8 16 9 29 16 NNE 0,0
14.01.2018 13:00:00 -0,1 -2,0 11 6 18 10 NNE -
14.01.2018 12:00:00 -0,2 -3,6 9 5 16 9 N 0,0
14.01.2018 11:00:00 -0,8 -3,7 8 4 13 7 N 0,0
14.01.2018 10:00:00 -1,2 -4,0 4 2 13 7 NNW 0,0
14.01.2018 09:00:00 -1,9 -4,6 2 1 9 5 E 0,0
14.01.2018 08:00:00 -2,3 -4,8 4 2 5 3 W 0,0
14.01.2018 07:00:00 -2,2 -4,5 0 0 8 4 N -
14.01.2018 06:00:00 -1,7 -5,0 4 2 18 10 NE 0,0
14.01.2018 05:00:00 -1,2 -4,0 8 4 15 8 N 0,0
14.01.2018 04:00:00 -1,1 -3,6 8 4 15 8 W 0,0
14.01.2018 03:00:00 -0,9 -3,4 5 3 18 10 S 0,0
14.01.2018 02:00:00 -0,9 -4,1 8 4 18 10 S 0,0
14.01.2018 01:00:00 -0,3 -4,7 4 2 28 15 SW -
14.01.2018 00:00:00 0,4 -3,7 13 7 46 25 SW 0,0
13.01.2018 23:00:00 1,8 -3,3 18 10 37 20 SW 0,0
13.01.2018 22:00:00 -0,2 -4,5 18 10 48 26 S 0,0
13.01.2018 21:00:00 0,3 -6,1 18 10 39 21 SSW 0,0
13.01.2018 20:00:00 0,7 -6,9 15 8 37 20 SSW 0,0
13.01.2018 19:00:00 0,7 -6,9 4 2 18 10 WSW -
13.01.2018 18:00:00 0,5 -7,0 8 4 39 21 WSW 0,0
13.01.2018 17:00:00 0,6 -7,2 16 9 39 21 SSW 0,0
13.01.2018 16:00:00 0,7 -7,3 15 8 41 22 SSW 0,0
13.01.2018 15:00:00 0,7 -8,3 18 10 37 20 SSW 0,0
13.01.2018 14:00:00 0,7 -9,1 22 12 46 25 S 0,0
13.01.2018 13:00:00 1,5 -10,4 22 12 42 23 S -
13.01.2018 12:00:00 2,7 -9,9 9 5 29 16 SW 0,0
13.01.2018 11:00:00 -0,4 -6,4 11 6 22 12 WSW 0,0
13.01.2018 10:00:00 -2,6 -7,7 15 8 21 11 WSW 0,0
13.01.2018 09:00:00 -5,0 -9,8 15 8 24 13 W 0,0
13.01.2018 08:00:00 -6,2 -10,4 18 10 26 14 WSW 0,0
13.01.2018 07:00:00 -6,9 -11,1 18 10 26 14 WSW -
13.01.2018 06:00:00 -7,1 -11,1 18 10 24 13 WSW 0,0
13.01.2018 05:00:00 -7,0 -11,7 16 9 24 13 WSW 0,0
13.01.2018 04:00:00 -7,4 -10,9 18 10 28 15 W 0,0
13.01.2018 03:00:00 -7,5 -11,0 18 10 24 13 WSW 0,0
13.01.2018 02:00:00 -8,8 -11,0 4 2 18 10 SW 0,0
13.01.2018 01:00:00 -9,0 -11,7 9 5 22 12 WSW -
13.01.2018 00:00:00 -8,7 -11,5 5 3 21 11 WSW 0,0
12.01.2018 23:00:00 -7,6 -10,6 9 5 22 12 SW 0,0
12.01.2018 22:00:00 -7,6 -10,9 13 7 21 11 WSW 0,0
12.01.2018 21:00:00 -6,4 -9,3 9 5 21 11 WSW 0,0
12.01.2018 20:00:00 -5,5 -7,8 11 6 18 10 SW 0,0
12.01.2018 19:00:00 -3,0 -5,6 8 4 15 8 NNW -
12.01.2018 18:00:00 -2,6 -4,8 8 4 26 14 NW 0,0
12.01.2018 17:00:00 -1,4 -4,9 11 6 29 16 N 0,0
12.01.2018 16:00:00 -0,8 -3,0 18 10 31 17 NNE 0,0
12.01.2018 15:00:00 -0,5 -3,7 9 5 24 13 N 0,0
12.01.2018 14:00:00 -0,6 -3,3 15 8 29 16 NNE 0,0
12.01.2018 13:00:00 -0,7 -3,7 16 9 39 21 NNE -
12.01.2018 12:00:00 0,2 -3,7 15 8 28 15 NNE 0,0
12.01.2018 11:00:00 -1,1 -3,9 16 9 35 19 NNE 0,0
12.01.2018 10:00:00 -2,2 -3,0 21 11 37 20 NNE 0,0
12.01.2018 09:00:00 -2,4 -3,5 15 8 34 18 N 0,0
12.01.2018 08:00:00 -2,5 -5,0 9 5 34 18 NNE 0,0
12.01.2018 07:00:00 -2,3 -5,1 11 6 41 22 N -
12.01.2018 06:00:00 -2,4 -5,4 15 8 42 23 NE 0,0
12.01.2018 05:00:00 -2,7 -5,3 13 7 35 19 N 0,0
12.01.2018 04:00:00 -3,6 -5,3 13 7 37 20 NNW 0,0
12.01.2018 03:00:00 -3,5 -5,1 16 9 28 15 NNW 0,0
12.01.2018 02:00:00 -4,2 -6,5 5 3 18 10 NE 0,0
12.01.2018 01:00:00 -3,8 -5,2 5 3 26 14 NNW -
12.01.2018 00:00:00 -2,7 -4,4 9 5 29 16 N 0,0
11.01.2018 23:00:00 -2,9 -4,0 15 8 28 15 N 0,0
11.01.2018 22:00:00 -3,0 -4,6 16 9 29 16 NNW 0,0
11.01.2018 21:00:00 -2,8 -4,2 15 8 31 17 N 0,0
11.01.2018 20:00:00 -2,3 -4,2 18 10 39 21 N 0,0
11.01.2018 19:00:00 -1,9 -4,4 18 10 37 20 N -
11.01.2018 18:00:00 -2,1 -4,0 18 10 35 19 N 0,0
11.01.2018 17:00:00 -1,4 -4,4 18 10 41 22 NNE 0,0
11.01.2018 16:00:00 0,1 -4,0 21 11 41 22 NNE 0,0
11.01.2018 15:00:00 -0,8 -3,8 22 12 44 24 NNE 0,0
11.01.2018 14:00:00 0,0 -3,2 28 15 50 27 NNE 0,0
11.01.2018 13:00:00 -0,9 -3,1 24 13 46 25 NNE -
11.01.2018 12:00:00 -0,7 -3,6 24 13 50 27 NNE 0,0
11.01.2018 11:00:00 0,1 -3,8 24 13 48 26 NNE 0,0
11.01.2018 10:00:00 -1,0 -5,1 16 9 44 24 N 0,0
11.01.2018 09:00:00 -2,5 -4,4 24 13 48 26 NNE 0,0
11.01.2018 08:00:00 -2,0 -5,8 21 11 42 23 NNE 0,0
11.01.2018 07:00:00 -2,0 -5,0 21 11 44 24 NNE -

tt = Température de l'air
td = dewpoint
ff = Vitesse du vent
fx = gusts
dd = Direction du vent
rr = Quantités de précipitations

stations d'obs. à proximité